createdAt,value
2023-05-10T00:01:28.639Z,91.61
2023-05-10T00:04:02.014Z,91.32
2023-05-10T00:06:36.657Z,92.71
2023-05-10T00:09:09.551Z,91.57
2023-05-10T00:11:42.513Z,91.82
2023-05-10T00:14:15.684Z,93.28
2023-05-10T00:16:48.880Z,92.67
2023-05-10T00:19:21.718Z,92.83
2023-05-10T00:21:56.415Z,94.05
2023-05-10T00:24:29.315Z,92.63
2023-05-10T00:27:02.330Z,93.53
2023-05-10T00:29:35.090Z,92.96
2023-05-10T00:32:08.103Z,92.03
2023-05-10T00:34:41.196Z,93.33
2023-05-10T00:37:15.442Z,92.88
2023-05-10T00:39:48.227Z,94.72
2023-05-10T00:42:21.140Z,93.94
2023-05-10T00:44:53.985Z,93.37
2023-05-10T00:47:27.129Z,92.46
2023-05-10T00:50:01.660Z,92.36
2023-05-10T00:52:35.888Z,94.41
2023-05-10T00:55:09.305Z,92.47
2023-05-10T00:57:42.262Z,93.68
2023-05-10T01:00:18.990Z,94.56
2023-05-10T01:02:51.968Z,92.85
2023-05-10T01:05:25.484Z,93.57
2023-05-10T01:07:59.828Z,93.63
2023-05-10T01:10:33.205Z,92.60
2023-05-10T01:13:06.607Z,91.98
2023-05-10T01:15:39.829Z,92.78
2023-05-10T01:18:12.675Z,93.63
2023-05-10T01:20:49.892Z,92.01
2023-05-10T01:23:38.790Z,94.35
2023-05-10T01:26:35.316Z,92.92
2023-05-10T01:29:15.733Z,92.09
2023-05-10T01:32:09.280Z,93.44
2023-05-10T01:34:47.843Z,95.51
2023-05-10T01:37:23.879Z,95.54
2023-05-10T01:40:00.582Z,92.50
2023-05-10T01:42:38.646Z,93.11
2023-05-10T01:45:15.770Z,94.53
2023-05-10T01:47:52.709Z,91.80
2023-05-10T01:50:29.770Z,93.93
2023-05-10T01:53:04.397Z,93.01
2023-05-10T01:55:38.075Z,94.91
2023-05-10T01:58:12.096Z,92.53
2023-05-10T02:00:46.609Z,92.57
2023-05-10T02:03:20.673Z,96.34
2023-05-10T02:05:55.995Z,96.75
2023-05-10T02:08:29.133Z,95.80
2023-05-10T02:11:03.372Z,94.56
2023-05-10T02:13:38.524Z,95.33
2023-05-10T02:16:11.808Z,95.31
2023-05-10T02:18:44.760Z,96.37
2023-05-10T02:21:19.452Z,96.77
2023-05-10T02:23:54.074Z,99.66
2023-05-10T02:26:28.309Z,97.97
2023-05-10T02:29:01.251Z,94.76
2023-05-10T02:31:35.290Z,96.63
2023-05-10T02:34:08.584Z,97.69
2023-05-10T02:36:43.371Z,93.81
2023-05-10T02:39:16.565Z,97.06
2023-05-10T02:41:50.478Z,98.63
2023-05-10T02:44:24.604Z,96.69
2023-05-10T02:46:58.090Z,96.17
2023-05-10T02:49:30.940Z,99.38
2023-05-10T02:52:07.986Z,95.22
2023-05-10T02:54:43.376Z,96.35
2023-05-10T02:57:19.219Z,94.84
2023-05-10T02:59:52.499Z,97.04
2023-05-10T03:02:25.490Z,97.96
2023-05-10T03:04:58.317Z,97.32
2023-05-10T03:07:32.856Z,97.28
2023-05-10T03:10:06.896Z,95.38
2023-05-10T03:12:59.035Z,96.91
2023-05-10T03:15:39.682Z,95.62
2023-05-10T03:18:15.176Z,97.22
2023-05-10T03:20:50.536Z,98.45
2023-05-10T03:23:28.469Z,94.62
2023-05-10T03:26:01.671Z,95.74
2023-05-10T03:28:36.291Z,97.59
2023-05-10T03:31:09.583Z,96.38
2023-05-10T03:33:48.001Z,92.68
2023-05-10T03:36:21.316Z,97.12
2023-05-10T03:38:55.625Z,94.79
2023-05-10T03:41:28.418Z,94.57
2023-05-10T03:44:01.162Z,96.18
2023-05-10T03:46:34.254Z,94.09
2023-05-10T03:49:07.578Z,95.24
2023-05-10T03:51:40.589Z,96.63
2023-05-10T03:54:14.781Z,95.18
2023-05-10T03:56:49.985Z,93.43
2023-05-10T03:59:22.829Z,95.74
2023-05-10T04:01:55.716Z,94.72
2023-05-10T04:04:28.557Z,94.13
2023-05-10T04:07:01.400Z,95.71
2023-05-10T04:09:35.634Z,93.63
2023-05-10T04:12:10.774Z,95.50
2023-05-10T04:14:43.985Z,93.07
2023-05-10T04:17:17.317Z,92.72
2023-05-10T04:19:50.396Z,94.60
2023-05-10T04:22:23.469Z,92.81
2023-05-10T04:24:57.797Z,92.51
2023-05-10T04:27:30.690Z,94.88
2023-05-10T04:30:03.663Z,93.39
2023-05-10T04:32:36.473Z,93.64
2023-05-10T04:35:11.248Z,94.58
2023-05-10T04:37:44.283Z,92.86
2023-05-10T04:40:18.846Z,92.34
2023-05-10T04:42:51.809Z,93.88
2023-05-10T04:45:24.808Z,94.34
2023-05-10T04:47:57.647Z,91.25
2023-05-10T04:50:30.504Z,94.45
2023-05-10T04:53:03.337Z,91.75
2023-05-10T04:55:38.007Z,91.86
2023-05-10T04:58:12.088Z,90.79
2023-05-10T05:00:45.186Z,93.69
2023-05-10T05:03:18.370Z,90.77
2023-05-10T05:05:51.217Z,92.46
2023-05-10T05:08:24.788Z,92.46
2023-05-10T05:11:00.479Z,93.48
2023-05-10T05:13:33.553Z,90.67
2023-05-10T05:16:07.832Z,90.63
2023-05-10T05:18:40.718Z,93.17
2023-05-10T05:21:17.325Z,90.72
2023-05-10T05:23:50.130Z,92.07
2023-05-10T05:26:24.574Z,88.64
2023-05-10T05:28:57.732Z,91.54
2023-05-10T05:31:31.532Z,93.23
2023-05-10T05:34:04.464Z,92.06
2023-05-10T05:36:39.232Z,90.92
2023-05-10T05:39:12.079Z,90.61
2023-05-10T05:41:47.277Z,91.14
2023-05-10T05:44:20.054Z,90.35
2023-05-10T05:46:53.205Z,90.72
2023-05-10T05:49:26.182Z,92.62
2023-05-10T05:52:00.775Z,90.87
2023-05-10T05:54:33.678Z,90.54
2023-05-10T05:57:08.557Z,88.25
2023-05-10T05:59:44.936Z,88.06
2023-05-10T06:02:17.829Z,89.51
2023-05-10T06:04:51.180Z,89.91
2023-05-10T06:07:24.326Z,90.36
2023-05-10T06:09:57.191Z,89.58
2023-05-10T06:12:31.598Z,92.03
2023-05-10T06:15:05.046Z,90.66
2023-05-10T06:17:37.973Z,88.25
2023-05-10T06:20:11.259Z,89.23
2023-05-10T06:22:44.401Z,90.24
2023-05-10T06:25:19.222Z,89.16
2023-05-10T06:27:58.172Z,90.38
2023-05-10T06:30:31.260Z,89.72
2023-05-10T06:33:04.681Z,89.36
2023-05-10T06:35:37.938Z,89.79
2023-05-10T06:38:11.618Z,90.08
2023-05-10T06:40:44.552Z,86.99
2023-05-10T06:43:19.145Z,91.91
2023-05-10T06:45:52.456Z,93.12
2023-05-10T06:48:25.788Z,86.83
2023-05-10T06:50:58.908Z,85.39
2023-05-10T06:53:32.894Z,86.98
2023-05-10T06:56:06.048Z,88.45
2023-05-10T06:58:40.322Z,88.10
2023-05-10T07:01:14.025Z,89.84
2023-05-10T07:03:47.131Z,85.93
2023-05-10T07:06:32.321Z,89.41
2023-05-10T07:09:05.976Z,82.21
2023-05-10T07:11:38.881Z,89.66
2023-05-10T07:14:13.211Z,83.98
2023-05-10T07:16:46.192Z,89.79
2023-05-10T07:19:19.590Z,88.41
2023-05-10T07:21:52.505Z,90.59
2023-05-10T07:24:25.596Z,88.83
2023-05-10T07:26:58.351Z,88.26
2023-05-10T07:29:32.701Z,81.12
2023-05-10T07:32:05.895Z,86.42
2023-05-10T07:34:38.851Z,86.97
2023-05-10T07:37:12.538Z,87.55
2023-05-10T07:39:45.400Z,86.51
2023-05-10T07:42:18.700Z,85.85
2023-05-10T07:44:53.345Z,86.27
2023-05-10T07:47:26.341Z,87.59
2023-05-10T07:49:59.476Z,86.67
2023-05-10T07:52:32.436Z,79.31
2023-05-10T07:55:05.682Z,89.28
2023-05-10T07:57:38.579Z,86.32
2023-05-10T08:00:14.349Z,90.96
2023-05-10T08:02:47.167Z,82.77
2023-05-10T08:05:20.308Z,91.80
2023-05-10T08:07:53.116Z,88.57
2023-05-10T08:10:26.686Z,90.08
2023-05-10T08:12:59.848Z,77.04
2023-05-10T08:15:34.102Z,92.98
2023-05-10T08:18:07.062Z,74.20
2023-05-10T08:20:39.971Z,77.20
2023-05-10T08:23:14.130Z,76.49
2023-05-10T08:25:47.548Z,91.81
2023-05-10T08:28:20.413Z,84.39
2023-05-10T08:30:54.721Z,88.07
2023-05-10T08:33:27.784Z,86.80
2023-05-10T08:36:01.072Z,77.23
2023-05-10T08:38:34.564Z,84.75
2023-05-10T08:41:07.503Z,82.50
2023-05-10T08:43:42.560Z,75.98
2023-05-10T08:46:18.705Z,82.82
2023-05-10T08:48:52.401Z,87.73
2023-05-10T08:51:27.830Z,86.05
2023-05-10T08:54:01.046Z,85.43
2023-05-10T08:56:34.133Z,76.82
2023-05-10T08:59:07.286Z,83.33
2023-05-10T09:01:42.532Z,78.27
2023-05-10T09:04:16.352Z,80.70
2023-05-10T09:06:49.487Z,77.67
2023-05-10T09:09:23.296Z,76.97
2023-05-10T09:11:56.541Z,75.90
2023-05-10T09:14:29.644Z,79.15
2023-05-10T09:17:04.198Z,82.39
2023-05-10T09:19:37.204Z,81.12
2023-05-10T09:22:10.585Z,76.26
2023-05-10T09:24:46.392Z,77.22
2023-05-10T09:27:19.470Z,79.38
2023-05-10T09:29:55.434Z,77.26
2023-05-10T09:32:40.023Z,78.64
2023-05-10T09:35:13.756Z,81.02
2023-05-10T09:37:48.892Z,74.47
2023-05-10T09:40:23.004Z,80.94
2023-05-10T09:42:56.632Z,79.78
2023-05-10T09:45:30.253Z,70.52
2023-05-10T09:48:05.330Z,76.72
2023-05-10T09:50:38.325Z,76.45
2023-05-10T09:53:11.845Z,78.53
2023-05-10T09:55:46.921Z,78.24
2023-05-10T09:58:20.165Z,69.69
2023-05-10T10:00:53.376Z,74.25
2023-05-10T10:03:29.679Z,73.18
2023-05-10T10:06:03.237Z,72.12
2023-05-10T10:08:37.081Z,72.12
2023-05-10T10:11:10.038Z,73.78
2023-05-10T10:13:42.987Z,72.77
2023-05-10T10:16:15.992Z,69.58
2023-05-10T10:18:50.828Z,67.46
2023-05-10T10:21:24.219Z,70.01
2023-05-10T10:23:57.280Z,69.67
2023-05-10T10:26:30.250Z,67.86
2023-05-10T10:29:13.539Z,78.33
2023-05-10T10:31:48.419Z,67.33
2023-05-10T10:34:27.995Z,68.03
2023-05-10T10:37:05.837Z,77.25
2023-05-10T10:39:38.804Z,69.54
2023-05-10T10:42:11.669Z,76.13
2023-05-10T10:44:45.793Z,71.81
2023-05-10T10:47:27.797Z,73.29
2023-05-10T10:50:09.293Z,77.46
2023-05-10T10:52:42.555Z,81.27
2023-05-10T10:55:16.149Z,78.42
2023-05-10T10:57:49.872Z,69.59
2023-05-10T11:00:24.527Z,71.82
2023-05-10T11:03:01.358Z,66.82
2023-05-10T11:05:39.809Z,82.40
2023-05-10T11:08:15.820Z,75.36
2023-05-10T11:10:56.260Z,70.46
2023-05-10T11:13:29.850Z,68.55
2023-05-10T11:16:12.121Z,69.84
2023-05-10T11:19:09.503Z,74.07
2023-05-10T11:21:55.104Z,73.06
2023-05-10T11:24:29.794Z,78.43
2023-05-10T11:27:03.013Z,65.46
2023-05-10T11:29:36.153Z,81.18
2023-05-10T11:32:09.792Z,68.37
2023-05-10T11:34:42.752Z,72.50
2023-05-10T11:37:16.991Z,69.08
2023-05-10T11:39:49.923Z,66.33
2023-05-10T11:42:23.002Z,70.18
2023-05-10T11:44:55.829Z,64.96
2023-05-10T11:47:28.930Z,79.52
2023-05-10T11:50:02.020Z,72.69
2023-05-10T11:52:39.396Z,77.48
2023-05-10T11:55:12.374Z,72.94
2023-05-10T11:57:46.920Z,74.15
2023-05-10T12:00:20.150Z,76.77
2023-05-10T12:02:53.406Z,72.64
2023-05-10T12:05:26.696Z,66.40
2023-05-10T12:08:14.666Z,79.51
2023-05-10T12:10:47.405Z,63.87
2023-05-10T12:13:21.619Z,71.16
2023-05-10T12:15:54.809Z,74.50
2023-05-10T12:18:27.978Z,71.42
2023-05-10T12:21:05.344Z,81.86
2023-05-10T12:23:39.956Z,72.65
2023-05-10T12:26:13.131Z,62.38
2023-05-10T12:28:46.471Z,74.54
2023-05-10T12:31:19.659Z,64.26
2023-05-10T12:33:53.922Z,73.60
2023-05-10T12:36:26.991Z,74.74
2023-05-10T12:39:05.935Z,74.57
2023-05-10T12:41:39.662Z,74.91
2023-05-10T12:44:13.858Z,78.97
2023-05-10T12:46:46.828Z,75.96
2023-05-10T12:49:20.647Z,72.24
2023-05-10T12:51:53.545Z,63.13
2023-05-10T12:54:27.942Z,62.81
2023-05-10T12:57:00.790Z,62.11
2023-05-10T12:59:35.258Z,63.37
2023-05-10T13:02:09.621Z,64.49
2023-05-10T13:04:43.023Z,64.22
2023-05-10T13:07:15.871Z,71.98
2023-05-10T13:09:52.741Z,73.42
2023-05-10T13:12:25.791Z,68.72
2023-05-10T13:14:58.844Z,72.19
2023-05-10T13:17:33.544Z,62.78
2023-05-10T13:20:07.796Z,63.08
2023-05-10T13:22:40.992Z,71.19
2023-05-10T13:25:15.677Z,70.65
2023-05-10T13:27:48.705Z,64.96
2023-05-10T13:30:21.749Z,67.11
2023-05-10T13:32:54.753Z,71.75
2023-05-10T13:35:27.783Z,71.75
2023-05-10T13:38:00.911Z,67.12
2023-05-10T13:40:35.250Z,73.05
2023-05-10T13:43:08.122Z,73.37
2023-05-10T13:45:41.293Z,72.53
2023-05-10T13:48:14.302Z,71.25
2023-05-10T13:50:47.457Z,69.67
2023-05-10T13:53:20.383Z,65.42
2023-05-10T13:55:54.716Z,70.00
2023-05-10T13:58:36.813Z,62.80
2023-05-10T14:01:24.615Z,68.62
2023-05-10T14:04:12.393Z,64.27
2023-05-10T14:06:45.678Z,63.17
2023-05-10T14:09:18.699Z,69.14
2023-05-10T14:11:53.263Z,65.86
2023-05-10T14:14:26.162Z,68.00
2023-05-10T14:17:00.364Z,63.10
2023-05-10T14:19:34.956Z,63.06
2023-05-10T14:22:07.840Z,69.05
2023-05-10T14:24:40.868Z,68.72
2023-05-10T14:27:15.278Z,61.37
2023-05-10T14:29:49.030Z,62.83
2023-05-10T14:32:22.124Z,66.63
2023-05-10T14:35:00.679Z,69.03
2023-05-10T14:37:33.637Z,61.83
2023-05-10T14:40:07.599Z,60.77
2023-05-10T14:42:41.921Z,61.34
2023-05-10T14:45:15.057Z,67.85
2023-05-10T14:47:48.187Z,68.10
2023-05-10T14:50:35.157Z,67.25
2023-05-10T14:53:09.369Z,61.16
2023-05-10T14:55:42.240Z,66.21
2023-05-10T14:58:17.541Z,63.53
2023-05-10T15:00:50.676Z,60.52
2023-05-10T15:03:24.414Z,62.44
2023-05-10T15:05:58.899Z,61.32
2023-05-10T15:08:32.305Z,64.08
2023-05-10T15:11:05.513Z,62.11
2023-05-10T15:13:39.737Z,69.44
2023-05-10T15:16:12.599Z,66.77
2023-05-10T15:18:45.848Z,69.18
2023-05-10T15:21:19.174Z,65.08
2023-05-10T15:23:52.065Z,65.15
2023-05-10T15:26:25.023Z,68.25
2023-05-10T15:28:59.509Z,69.17
2023-05-10T15:31:32.362Z,67.36
2023-05-10T15:34:05.657Z,64.65
2023-05-10T15:36:38.388Z,66.03
2023-05-10T15:39:11.628Z,67.67
2023-05-10T15:41:44.796Z,63.20
2023-05-10T15:44:19.537Z,66.62
2023-05-10T15:46:52.870Z,63.51
2023-05-10T15:49:26.105Z,58.09
2023-05-10T15:51:59.166Z,66.10
2023-05-10T15:54:32.303Z,59.25
2023-05-10T15:57:05.362Z,61.78
2023-05-10T15:59:39.842Z,70.45
2023-05-10T16:02:12.759Z,69.07
2023-05-10T16:04:45.884Z,63.73
2023-05-10T16:07:18.939Z,70.82
2023-05-10T16:09:51.861Z,60.50
2023-05-10T16:12:24.822Z,69.95
2023-05-10T16:14:59.324Z,64.65
2023-05-10T16:17:32.653Z,71.71
2023-05-10T16:20:06.235Z,68.29
2023-05-10T16:22:39.095Z,65.26
2023-05-10T16:25:13.990Z,72.98
2023-05-10T16:27:47.998Z,74.27
2023-05-10T16:30:24.457Z,72.74
2023-05-10T16:32:57.629Z,75.11
2023-05-10T16:35:31.019Z,61.78
2023-05-10T16:38:04.074Z,76.81
2023-05-10T16:40:36.979Z,78.66
2023-05-10T16:43:10.062Z,75.87
2023-05-10T16:45:44.654Z,69.09
2023-05-10T16:48:17.554Z,65.76
2023-05-10T16:50:50.369Z,74.30
2023-05-10T16:53:23.263Z,61.26
2023-05-10T16:55:56.300Z,62.33
2023-05-10T16:58:29.419Z,74.89
2023-05-10T17:01:03.894Z,60.53
2023-05-10T17:03:36.928Z,67.82
2023-05-10T17:06:10.221Z,65.99
2023-05-10T17:08:43.302Z,74.86
2023-05-10T17:11:16.364Z,77.68
2023-05-10T17:13:49.377Z,78.21
2023-05-10T17:16:23.732Z,65.66
2023-05-10T17:18:56.765Z,68.30
2023-05-10T17:21:29.832Z,67.45
2023-05-10T17:24:03.229Z,78.86
2023-05-10T17:26:36.285Z,69.80
2023-05-10T17:29:09.471Z,68.44
2023-05-10T17:31:43.846Z,66.78
2023-05-10T17:34:18.098Z,77.31
2023-05-10T17:36:51.067Z,76.23
2023-05-10T17:39:24.344Z,70.38
2023-05-10T17:41:57.633Z,67.85
2023-05-10T17:44:30.707Z,62.05
2023-05-10T17:47:06.419Z,64.12
2023-05-10T17:49:39.835Z,80.88
2023-05-10T17:52:12.637Z,80.69
2023-05-10T17:54:45.790Z,75.65
2023-05-10T17:57:18.731Z,73.82
2023-05-10T17:59:51.569Z,63.96
2023-05-10T18:02:25.794Z,81.15
2023-05-10T18:05:03.667Z,71.69
2023-05-10T18:07:37.106Z,63.78
2023-05-10T18:10:10.725Z,66.40
2023-05-10T18:12:43.949Z,70.02
2023-05-10T18:15:16.964Z,65.65
2023-05-10T18:17:52.036Z,64.21
2023-05-10T18:20:26.001Z,82.86
2023-05-10T18:22:59.141Z,81.92
2023-05-10T18:25:32.333Z,80.15
2023-05-10T18:28:05.838Z,83.85
2023-05-10T18:30:38.945Z,61.42
2023-05-10T18:33:13.633Z,77.64
2023-05-10T18:35:47.350Z,79.45
2023-05-10T18:38:20.555Z,62.59
2023-05-10T18:40:53.817Z,86.77
2023-05-10T18:43:27.143Z,72.27
2023-05-10T18:46:00.641Z,64.25
2023-05-10T18:48:35.152Z,76.39
2023-05-10T18:51:08.434Z,81.27
2023-05-10T18:53:41.391Z,77.74
2023-05-10T18:56:14.395Z,79.34
2023-05-10T18:58:47.350Z,74.63
2023-05-10T19:01:20.734Z,78.70
2023-05-10T19:03:55.162Z,72.86
2023-05-10T19:06:28.150Z,69.23
2023-05-10T19:09:01.165Z,77.73
2023-05-10T19:11:34.604Z,78.31
2023-05-10T19:14:07.948Z,74.69
2023-05-10T19:16:42.841Z,73.93
2023-05-10T19:19:20.199Z,71.53
2023-05-10T19:21:54.781Z,77.52
2023-05-10T19:24:27.886Z,76.11
2023-05-10T19:27:02.196Z,70.71
2023-05-10T19:29:35.639Z,75.35
2023-05-10T19:32:09.321Z,69.63
2023-05-10T19:34:43.947Z,71.35
2023-05-10T19:37:16.872Z,73.51
2023-05-10T19:39:50.122Z,70.61
2023-05-10T19:42:23.067Z,76.83
2023-05-10T19:45:00.277Z,69.57
2023-05-10T19:47:35.256Z,75.64
2023-05-10T19:50:10.343Z,72.72
2023-05-10T19:52:43.406Z,75.55
2023-05-10T19:55:26.145Z,73.18
2023-05-10T19:58:00.628Z,73.00
2023-05-10T20:00:34.032Z,72.80
2023-05-10T20:03:09.168Z,71.54
2023-05-10T20:05:44.140Z,74.92
2023-05-10T20:08:16.930Z,71.46
2023-05-10T20:10:49.854Z,71.98
2023-05-10T20:13:23.234Z,72.36
2023-05-10T20:15:57.072Z,72.47
2023-05-10T20:18:30.226Z,73.42
2023-05-10T20:21:04.858Z,73.45
2023-05-10T20:23:37.826Z,73.48
2023-05-10T20:26:11.000Z,75.19
2023-05-10T20:28:44.344Z,72.67
2023-05-10T20:31:17.493Z,80.22
2023-05-10T20:33:50.398Z,70.71
2023-05-10T20:36:24.893Z,74.50
2023-05-10T20:38:58.029Z,71.40
2023-05-10T20:41:31.359Z,71.93
2023-05-10T20:44:05.612Z,75.38
2023-05-10T20:46:38.800Z,71.63
2023-05-10T20:49:12.749Z,71.81
2023-05-10T20:51:46.958Z,72.41
2023-05-10T20:54:20.225Z,70.84
2023-05-10T20:56:53.818Z,74.10
2023-05-10T20:59:26.859Z,76.56
2023-05-10T21:02:00.114Z,74.30
2023-05-10T21:04:33.500Z,76.75
2023-05-10T21:07:08.040Z,76.16
2023-05-10T21:09:40.929Z,76.04
2023-05-10T21:12:14.244Z,80.14
2023-05-10T21:14:47.856Z,76.68
2023-05-10T21:17:20.728Z,75.13
2023-05-10T21:19:53.652Z,75.24
2023-05-10T21:22:28.056Z,78.97
2023-05-10T21:25:01.302Z,75.05
2023-05-10T21:27:34.288Z,75.24
2023-05-10T21:30:07.736Z,73.64
2023-05-10T21:32:40.681Z,76.68
2023-05-10T21:35:13.845Z,76.06
2023-05-10T21:37:48.318Z,76.32
2023-05-10T21:40:21.470Z,75.43
2023-05-10T21:42:54.348Z,73.77
2023-05-10T21:45:29.244Z,75.98
2023-05-10T21:48:02.558Z,76.85
2023-05-10T21:50:35.534Z,73.80
2023-05-10T21:53:09.756Z,75.45
2023-05-10T21:55:42.624Z,76.32
2023-05-10T21:58:15.709Z,73.62
2023-05-10T22:00:48.690Z,78.69
2023-05-10T22:03:22.005Z,77.06
2023-05-10T22:05:55.046Z,72.94
2023-05-10T22:08:29.416Z,76.13
2023-05-10T22:11:02.322Z,78.64
2023-05-10T22:13:35.237Z,77.71
2023-05-10T22:16:08.437Z,76.44
2023-05-10T22:18:41.516Z,78.30
2023-05-10T22:21:14.443Z,81.39
2023-05-10T22:23:48.666Z,77.42
2023-05-10T22:26:21.653Z,78.32
2023-05-10T22:28:54.493Z,75.14
2023-05-10T22:31:27.648Z,77.79
2023-05-10T22:34:00.609Z,78.38
2023-05-10T22:36:33.616Z,76.02
2023-05-10T22:39:07.797Z,76.26
2023-05-10T22:41:40.755Z,76.09
2023-05-10T22:44:13.576Z,77.71
2023-05-10T22:46:46.643Z,74.80
2023-05-10T22:49:19.549Z,75.58
2023-05-10T22:51:52.665Z,81.03
2023-05-10T22:54:26.911Z,80.60
2023-05-10T22:56:59.796Z,76.51
2023-05-10T22:59:32.732Z,79.46
2023-05-10T23:02:06.179Z,79.50
2023-05-10T23:04:39.096Z,81.10
2023-05-10T23:07:12.212Z,79.49
2023-05-10T23:09:46.917Z,78.09
2023-05-10T23:12:19.798Z,79.62
2023-05-10T23:14:52.659Z,80.14
2023-05-10T23:17:25.770Z,77.62
2023-05-10T23:19:59.539Z,82.15
2023-05-10T23:22:32.379Z,82.71
2023-05-10T23:25:07.291Z,79.75
2023-05-10T23:27:40.101Z,81.18
2023-05-10T23:30:13.413Z,78.83
2023-05-10T23:32:46.272Z,83.47
2023-05-10T23:35:18.999Z,84.26
2023-05-10T23:37:52.039Z,83.25
2023-05-10T23:40:27.364Z,78.04
2023-05-10T23:43:00.763Z,83.49
2023-05-10T23:45:33.863Z,83.46
2023-05-10T23:48:06.796Z,82.57
2023-05-10T23:50:39.607Z,84.62
2023-05-10T23:53:12.392Z,81.42
2023-05-10T23:55:46.940Z,81.98
2023-05-10T23:58:19.828Z,85.20
